createdAt,value
2018-06-01T00:00:31.328Z,84.49
2018-06-01T00:14:15.873Z,84.58
2018-06-01T00:16:43.517Z,84.60
2018-06-01T00:19:11.086Z,84.64
2018-06-01T00:30:49.976Z,84.79
2018-06-01T00:33:17.699Z,84.84
2018-06-01T00:35:45.328Z,84.85
2018-06-01T00:47:13.534Z,85.01
2018-06-01T00:49:41.164Z,85.07
2018-06-01T00:52:08.863Z,85.14
2018-06-01T01:03:23.542Z,85.26
2018-06-01T01:05:51.172Z,85.32
2018-06-01T01:08:18.737Z,85.39
2018-06-01T01:10:46.299Z,85.45
2018-06-01T01:37:51.072Z,85.73
2018-06-01T01:40:18.676Z,85.78
2018-06-01T01:42:46.293Z,85.81
2018-06-01T01:45:14.001Z,85.81
2018-06-01T01:56:49.907Z,85.89
2018-06-01T01:59:17.533Z,85.95
2018-06-01T02:01:45.080Z,86.02
2018-06-01T02:13:21.150Z,86.00
2018-06-01T02:15:48.673Z,86.08
2018-06-01T02:18:16.250Z,86.06
2018-06-01T02:29:51.767Z,86.20
2018-06-01T02:32:19.342Z,86.19
2018-06-01T02:34:46.968Z,86.24
2018-06-01T02:46:16.835Z,86.25
2018-06-01T02:48:44.431Z,86.24
2018-06-01T02:51:12.102Z,86.26
2018-06-01T03:02:56.607Z,86.29
2018-06-01T03:05:24.165Z,86.25
2018-06-01T03:07:51.808Z,86.33
2018-06-01T03:10:19.396Z,86.35
2018-06-01T03:21:34.744Z,86.53
2018-06-01T03:24:02.395Z,86.58
2018-06-01T03:26:29.968Z,86.67
2018-06-01T03:40:05.049Z,86.65
2018-06-01T03:42:32.652Z,86.66
2018-06-01T03:45:00.196Z,86.61
2018-06-01T03:56:41.293Z,86.56
2018-06-01T03:59:08.897Z,86.61
2018-06-01T04:01:36.531Z,86.65
2018-06-01T04:13:08.220Z,86.67
2018-06-01T04:15:35.839Z,86.68
2018-06-01T04:18:03.424Z,86.66
2018-06-01T04:29:39.815Z,86.68
2018-06-01T04:32:07.392Z,86.71
2018-06-01T04:34:34.983Z,86.73
2018-06-01T04:37:06.292Z,86.74
2018-06-01T04:48:37.283Z,86.89
2018-06-01T04:51:04.908Z,86.94
2018-06-01T04:53:32.499Z,86.97
2018-06-01T05:05:08.400Z,86.94
2018-06-01T05:07:36.047Z,86.96
2018-06-01T05:10:03.768Z,86.95
2018-06-01T05:21:40.471Z,87.00
2018-06-01T05:24:08.133Z,87.00
2018-06-01T05:26:35.756Z,87.05
2018-06-01T05:38:11.855Z,87.21
2018-06-01T05:40:39.482Z,87.18
2018-06-01T05:43:07.147Z,87.19
2018-06-01T05:54:43.131Z,86.84
2018-06-01T05:57:10.708Z,86.76
2018-06-01T05:59:38.530Z,86.72
2018-06-01T06:02:07.344Z,86.72
2018-06-01T06:13:43.849Z,86.45
2018-06-01T06:16:11.559Z,86.37
2018-06-01T06:18:39.275Z,86.36
2018-06-01T06:30:15.138Z,86.34
2018-06-01T06:32:42.694Z,86.24
2018-06-01T06:35:10.340Z,86.14
2018-06-01T06:44:06.808Z,86.03
2018-06-01T06:46:37.495Z,86.01
2018-06-01T06:49:05.036Z,85.92
2018-06-01T06:51:32.652Z,85.86
2018-06-01T06:54:01.490Z,85.87
2018-06-01T06:56:33.501Z,85.88
2018-06-01T06:59:07.347Z,85.84
2018-06-01T07:01:38.321Z,85.81
2018-06-01T07:04:06.015Z,85.83
2018-06-01T07:06:33.641Z,85.86
2018-06-01T07:09:01.191Z,85.89
2018-06-01T07:11:29.054Z,85.97
2018-06-01T07:13:59.374Z,86.04
2018-06-01T07:16:30.175Z,85.94
2018-06-01T07:21:34.496Z,85.83
2018-06-01T07:24:02.046Z,85.68
2018-06-01T07:26:29.658Z,85.68
2018-06-01T07:29:01.253Z,85.65
2018-06-01T07:31:33.101Z,85.60
2018-06-01T07:34:06.284Z,85.56
2018-06-01T07:36:41.199Z,85.49
2018-06-01T07:39:08.774Z,85.36
2018-06-01T07:41:36.379Z,85.34
2018-06-01T07:44:03.991Z,85.27
2018-06-01T07:46:33.281Z,85.20
2018-06-01T07:49:05.447Z,85.12
2018-06-01T07:51:39.047Z,84.93
2018-06-01T07:54:32.511Z,84.82
2018-06-01T07:57:00.171Z,84.50
2018-06-01T07:59:28.084Z,84.26
2018-06-01T08:01:55.707Z,84.20
2018-06-01T09:23:59.917Z,76.76
2018-06-01T09:57:05.969Z,75.91
2018-06-01T09:59:54.633Z,75.69
2018-06-01T10:35:39.119Z,71.72
2018-06-01T11:05:31.994Z,69.28
2018-06-01T11:41:21.704Z,68.80
2018-06-01T12:14:19.377Z,66.31
2018-06-01T12:28:59.275Z,65.63
2018-06-01T12:35:54.948Z,66.57
2018-06-01T12:47:31.450Z,66.12
2018-06-01T12:49:59.015Z,65.96
2018-06-01T12:52:26.675Z,65.75
2018-06-01T13:04:03.000Z,66.70
2018-06-01T13:06:30.587Z,66.38
2018-06-01T13:08:58.207Z,66.40
2018-06-01T13:23:13.803Z,65.98
2018-06-01T13:25:41.349Z,66.39
2018-06-01T13:37:17.422Z,67.70
2018-06-01T13:39:45.180Z,67.74
2018-06-01T13:42:12.924Z,67.58
2018-06-01T13:44:42.940Z,67.58
2018-06-01T13:56:18.700Z,67.76
2018-06-01T13:58:46.456Z,67.74
2018-06-01T14:01:14.012Z,67.63
2018-06-01T14:12:49.600Z,66.13
2018-06-01T14:15:17.221Z,65.92
2018-06-01T14:17:44.974Z,65.31
2018-06-01T14:29:20.855Z,64.28
2018-06-01T14:31:48.407Z,63.60
2018-06-01T14:34:16.219Z,62.89
2018-06-01T14:45:52.199Z,60.96
2018-06-01T14:51:06.700Z,59.70
2018-06-01T15:02:55.518Z,58.27
2018-06-01T15:05:23.076Z,59.06
2018-06-01T15:07:51.306Z,59.22
2018-06-01T15:10:18.983Z,60.03
2018-06-01T15:21:55.467Z,61.72
2018-06-01T15:24:23.191Z,61.89
2018-06-01T15:26:50.738Z,62.56
2018-06-01T15:34:42.964Z,63.69
2018-06-01T15:37:11.217Z,63.52
2018-06-01T15:39:38.757Z,63.70
2018-06-01T15:42:06.302Z,63.43
2018-06-01T15:44:33.994Z,63.23
2018-06-01T15:47:05.920Z,63.24
2018-06-01T15:56:15.861Z,63.90
2018-06-01T15:58:43.421Z,63.85
2018-06-01T16:01:10.995Z,63.00
2018-06-01T16:03:43.072Z,61.84
2018-06-01T16:11:43.447Z,59.01
2018-06-01T16:14:14.835Z,58.08
2018-06-01T16:16:43.153Z,57.62
2018-06-01T16:19:10.918Z,56.09
2018-06-01T16:27:06.318Z,56.89
2018-06-01T16:29:41.216Z,56.85
2018-06-01T16:32:08.745Z,56.63
2018-06-01T16:34:36.322Z,56.84
2018-06-01T16:37:04.040Z,57.17
2018-06-01T16:43:02.623Z,58.50
2018-06-01T16:48:46.851Z,60.07
2018-06-01T16:51:17.100Z,60.93
2018-06-01T16:53:46.440Z,61.57
2018-06-01T16:59:15.700Z,63.16
2018-06-01T17:04:22.980Z,64.42
2018-06-01T17:06:53.062Z,64.67
2018-06-01T17:09:20.667Z,64.89
2018-06-01T17:21:40.427Z,66.70
2018-06-01T17:26:43.003Z,66.86
2018-06-01T17:40:56.912Z,67.66
2018-06-01T17:43:24.461Z,67.76
2018-06-01T17:45:52.117Z,68.04
2018-06-01T17:57:29.623Z,69.18
2018-06-01T17:59:57.492Z,69.52
2018-06-01T18:02:25.114Z,69.84
2018-06-01T18:14:02.268Z,70.14
2018-06-01T18:16:31.599Z,70.42
2018-06-01T18:18:59.298Z,70.64
2018-06-01T18:30:03.602Z,71.86
2018-06-01T18:32:34.830Z,72.15
2018-06-01T18:35:02.387Z,72.36
2018-06-01T18:37:30.449Z,72.43
2018-06-01T18:48:35.353Z,73.00
2018-06-01T18:51:02.873Z,73.03
2018-06-01T18:53:30.518Z,73.09
2018-06-01T18:59:09.614Z,73.33
2018-06-01T19:57:06.432Z,77.71
2018-06-01T19:59:33.989Z,78.14
2018-06-01T20:02:01.555Z,78.38
2018-06-01T20:04:29.263Z,78.63
2018-06-01T20:06:58.152Z,78.70
2018-06-01T20:09:30.603Z,78.80
2018-06-01T20:12:17.844Z,78.90
2018-06-01T20:17:31.487Z,79.22
2018-06-01T20:19:59.039Z,79.22
2018-06-01T20:22:26.834Z,79.30
2018-06-01T20:24:55.201Z,79.36
2018-06-01T20:27:37.431Z,79.60
2018-06-01T20:30:07.779Z,79.67
2018-06-01T20:32:36.369Z,79.68
2018-06-01T20:35:03.969Z,79.74
2018-06-01T20:37:31.582Z,79.86
2018-06-01T20:39:59.303Z,79.94
2018-06-01T20:42:31.480Z,79.95
2018-06-01T20:44:59.828Z,79.93
2018-06-01T20:47:30.773Z,79.97
2018-06-01T20:49:58.340Z,79.98
2018-06-01T20:52:25.863Z,80.02
2018-06-01T20:54:54.302Z,80.12
2018-06-01T20:57:22.862Z,80.33
2018-06-01T20:59:53.799Z,80.37
2018-06-01T21:02:31.453Z,80.32
2018-06-01T21:04:59.673Z,80.20
2018-06-01T21:07:27.349Z,80.16
2018-06-01T21:09:54.855Z,80.12
2018-06-01T21:12:22.579Z,80.10
2018-06-01T21:14:51.444Z,80.10
2018-06-01T21:17:22.027Z,80.05
2018-06-01T21:19:54.280Z,79.91
2018-06-01T21:22:22.959Z,79.83
2018-06-01T21:24:50.587Z,79.71
2018-06-01T21:27:18.134Z,79.64
2018-06-01T21:29:45.738Z,79.55
2018-06-01T21:32:14.140Z,79.54
2018-06-01T21:34:46.459Z,79.50
2018-06-01T21:37:19.708Z,79.47
2018-06-01T21:42:34.183Z,79.34
2018-06-01T21:45:01.728Z,79.32
2018-06-01T21:47:29.340Z,79.28
2018-06-01T21:49:59.045Z,79.33
2018-06-01T21:52:38.819Z,79.27
2018-06-01T21:55:08.926Z,79.22
2018-06-01T22:00:32.707Z,79.19
2018-06-01T22:03:00.313Z,79.20
2018-06-01T22:05:27.942Z,79.32
2018-06-01T22:07:55.551Z,79.41
2018-06-01T22:10:25.883Z,79.49
2018-06-01T22:12:55.760Z,79.62
2018-06-01T22:18:26.252Z,79.85
2018-06-01T22:20:53.920Z,79.98
2018-06-01T22:23:24.286Z,80.12
2018-06-01T22:25:53.625Z,80.33
2018-06-01T22:28:23.678Z,80.44
2018-06-01T22:30:51.432Z,80.64
2018-06-01T22:33:20.880Z,80.89
2018-06-01T22:35:48.473Z,81.07
2018-06-01T22:38:16.600Z,81.28
2018-06-01T22:40:44.233Z,81.48
2018-06-01T22:43:11.862Z,81.63
2018-06-01T22:45:40.895Z,81.80
2018-06-01T22:48:08.570Z,81.94
2018-06-01T22:50:36.155Z,82.03
2018-06-01T22:53:03.755Z,82.13
2018-06-01T22:55:31.433Z,82.25
2018-06-01T22:57:59.011Z,82.29
2018-06-01T23:00:30.719Z,82.36
2018-06-01T23:03:00.245Z,82.45
2018-06-01T23:05:27.945Z,82.62
2018-06-01T23:07:55.619Z,82.78
2018-06-01T23:10:23.207Z,82.89
2018-06-01T23:12:50.770Z,83.02
2018-06-01T23:15:18.366Z,83.10
2018-06-01T23:17:47.121Z,83.09
2018-06-01T23:20:15.531Z,83.21
2018-06-01T23:22:43.235Z,83.24
2018-06-01T23:25:10.856Z,83.27
2018-06-01T23:27:38.376Z,83.38
2018-06-01T23:30:06.011Z,83.47
2018-06-01T23:32:33.629Z,83.52
2018-06-01T23:35:01.875Z,83.66
2018-06-01T23:37:30.476Z,83.75
2018-06-01T23:39:58.105Z,83.82
2018-06-01T23:42:25.677Z,83.78
2018-06-01T23:44:53.286Z,83.73
2018-06-01T23:47:20.851Z,83.78
2018-06-01T23:49:48.464Z,83.94
2018-06-01T23:52:16.302Z,84.07
2018-06-01T23:54:44.001Z,84.13
2018-06-01T23:57:11.595Z,84.10
2018-06-01T23:59:39.131Z,84.08
